sensor_id;sensor_type;location;lat;lon;timestamp;P1;durP1;ratioP1;P2;durP2;ratioP2
11548;SDS011;61444;59.472;18.306;2023-07-20T00:00:48;2.03;;;1.10;;
11548;SDS011;61444;59.472;18.306;2023-07-20T00:03:18;1.83;;;1.00;;
11548;SDS011;61444;59.472;18.306;2023-07-20T00:05:41;2.50;;;1.07;;
11548;SDS011;61444;59.472;18.306;2023-07-20T00:08:01;1.70;;;1.03;;
11548;SDS011;61444;59.472;18.306;2023-07-20T00:10:11;2.00;;;1.10;;
11548;SDS011;61444;59.472;18.306;2023-07-20T00:12:35;1.53;;;1.40;;
11548;SDS011;61444;59.472;18.306;2023-07-20T00:14:55;1.77;;;1.20;;
11548;SDS011;61444;59.472;18.306;2023-07-20T00:17:16;1.30;;;1.10;;
11548;SDS011;61444;59.472;18.306;2023-07-20T00:19:37;1.73;;;1.10;;
11548;SDS011;61444;59.472;18.306;2023-07-20T00:21:56;1.53;;;1.20;;
11548;SDS011;61444;59.472;18.306;2023-07-20T00:24:12;2.40;;;1.10;;
11548;SDS011;61444;59.472;18.306;2023-07-20T00:26:39;3.50;;;1.20;;
11548;SDS011;61444;59.472;18.306;2023-07-20T00:28:58;1.43;;;1.30;;
11548;SDS011;61444;59.472;18.306;2023-07-20T00:31:08;3.83;;;1.30;;
11548;SDS011;61444;59.472;18.306;2023-07-20T00:33:32;2.93;;;1.20;;
11548;SDS011;61444;59.472;18.306;2023-07-20T00:35:52;2.93;;;1.20;;
11548;SDS011;61444;59.472;18.306;2023-07-20T00:38:06;1.87;;;1.20;;
11548;SDS011;61444;59.472;18.306;2023-07-20T00:40:25;1.63;;;0.93;;
11548;SDS011;61444;59.472;18.306;2023-07-20T00:42:40;3.27;;;1.30;;
11548;SDS011;61444;59.472;18.306;2023-07-20T00:44:51;2.70;;;1.30;;
11548;SDS011;61444;59.472;18.306;2023-07-20T00:47:01;2.47;;;1.30;;
11548;SDS011;61444;59.472;18.306;2023-07-20T00:49:28;4.60;;;1.33;;
11548;SDS011;61444;59.472;18.306;2023-07-20T00:51:41;2.60;;;1.47;;
11548;SDS011;61444;59.472;18.306;2023-07-20T00:53:54;2.63;;;1.30;;
11548;SDS011;61444;59.472;18.306;2023-07-20T00:56:03;3.23;;;1.40;;
11548;SDS011;61444;59.472;18.306;2023-07-20T00:58:16;3.80;;;1.30;;
11548;SDS011;61444;59.472;18.306;2023-07-20T01:00:37;5.70;;;1.40;;
11548;SDS011;61444;59.472;18.306;2023-07-20T01:02:50;3.00;;;1.20;;
11548;SDS011;61444;59.472;18.306;2023-07-20T01:05:02;4.77;;;1.30;;
11548;SDS011;61444;59.472;18.306;2023-07-20T01:07:17;2.33;;;1.30;;
11548;SDS011;61444;59.472;18.306;2023-07-20T01:09:47;1.93;;;1.20;;
11548;SDS011;61444;59.472;18.306;2023-07-20T01:12:09;3.63;;;1.60;;
11548;SDS011;61444;59.472;18.306;2023-07-20T01:14:23;1.60;;;1.10;;
11548;SDS011;61444;59.472;18.306;2023-07-20T01:16:44;4.87;;;1.30;;
11548;SDS011;61444;59.472;18.306;2023-07-20T01:19:00;3.33;;;1.37;;
11548;SDS011;61444;59.472;18.306;2023-07-20T01:21:26;2.33;;;1.03;;
11548;SDS011;61444;59.472;18.306;2023-07-20T01:23:53;2.87;;;1.20;;
11548;SDS011;61444;59.472;18.306;2023-07-20T01:26:17;1.27;;;1.17;;
11548;SDS011;61444;59.472;18.306;2023-07-20T01:31:25;3.20;;;1.10;;
11548;SDS011;61444;59.472;18.306;2023-07-20T01:33:44;3.83;;;1.50;;
11548;SDS011;61444;59.472;18.306;2023-07-20T01:35:54;2.10;;;1.30;;
11548;SDS011;61444;59.472;18.306;2023-07-20T01:38:13;4.13;;;1.57;;
11548;SDS011;61444;59.472;18.306;2023-07-20T01:40:35;2.97;;;1.13;;
11548;SDS011;61444;59.472;18.306;2023-07-20T01:43:04;2.97;;;1.50;;
11548;SDS011;61444;59.472;18.306;2023-07-20T01:45:26;1.97;;;1.30;;
11548;SDS011;61444;59.472;18.306;2023-07-20T01:47:48;3.23;;;1.30;;
11548;SDS011;61444;59.472;18.306;2023-07-20T01:50:12;4.07;;;1.60;;
11548;SDS011;61444;59.472;18.306;2023-07-20T01:52:33;3.10;;;1.40;;
11548;SDS011;61444;59.472;18.306;2023-07-20T01:54:51;4.33;;;1.40;;
11548;SDS011;61444;59.472;18.306;2023-07-20T01:57:11;3.47;;;1.30;;
11548;SDS011;61444;59.472;18.306;2023-07-20T01:59:40;2.50;;;1.27;;
11548;SDS011;61444;59.472;18.306;2023-07-20T02:01:57;4.00;;;1.30;;
11548;SDS011;61444;59.472;18.306;2023-07-20T02:04:29;6.33;;;1.40;;
11548;SDS011;61444;59.472;18.306;2023-07-20T02:06:43;4.07;;;1.30;;
11548;SDS011;61444;59.472;18.306;2023-07-20T02:09:00;4.20;;;1.47;;
11548;SDS011;61444;59.472;18.306;2023-07-20T02:11:14;3.33;;;1.40;;
11548;SDS011;61444;59.472;18.306;2023-07-20T02:13:29;4.07;;;1.67;;
11548;SDS011;61444;59.472;18.306;2023-07-20T02:15:50;3.83;;;1.40;;
11548;SDS011;61444;59.472;18.306;2023-07-20T02:18:10;4.00;;;1.40;;
11548;SDS011;61444;59.472;18.306;2023-07-20T02:20:35;2.80;;;1.40;;
11548;SDS011;61444;59.472;18.306;2023-07-20T02:22:51;4.67;;;1.37;;
11548;SDS011;61444;59.472;18.306;2023-07-20T02:25:08;3.57;;;1.50;;
11548;SDS011;61444;59.472;18.306;2023-07-20T02:27:37;3.50;;;1.47;;
11548;SDS011;61444;59.472;18.306;2023-07-20T02:29:55;4.40;;;1.50;;
11548;SDS011;61444;59.472;18.306;2023-07-20T02:32:18;5.30;;;1.50;;
11548;SDS011;61444;59.472;18.306;2023-07-20T02:34:37;2.83;;;1.30;;
11548;SDS011;61444;59.472;18.306;2023-07-20T02:36:56;3.50;;;1.50;;
11548;SDS011;61444;59.472;18.306;2023-07-20T02:39:19;5.30;;;1.27;;
11548;SDS011;61444;59.472;18.306;2023-07-20T02:41:44;5.07;;;1.43;;
11548;SDS011;61444;59.472;18.306;2023-07-20T02:44:14;1.73;;;1.30;;
11548;SDS011;61444;59.472;18.306;2023-07-20T02:46:28;2.40;;;1.30;;
11548;SDS011;61444;59.472;18.306;2023-07-20T02:48:54;2.77;;;1.60;;
11548;SDS011;61444;59.472;18.306;2023-07-20T02:51:14;4.73;;;1.50;;
11548;SDS011;61444;59.472;18.306;2023-07-20T02:53:32;6.30;;;1.63;;
11548;SDS011;61444;59.472;18.306;2023-07-20T02:55:42;4.37;;;1.60;;
11548;SDS011;61444;59.472;18.306;2023-07-20T02:58:01;4.30;;;1.67;;
11548;SDS011;61444;59.472;18.306;2023-07-20T03:00:16;4.10;;;1.40;;
11548;SDS011;61444;59.472;18.306;2023-07-20T03:02:36;4.67;;;1.50;;
11548;SDS011;61444;59.472;18.306;2023-07-20T03:04:53;3.07;;;1.50;;
11548;SDS011;61444;59.472;18.306;2023-07-20T03:07:10;3.53;;;1.53;;
11548;SDS011;61444;59.472;18.306;2023-07-20T03:09:38;7.43;;;1.57;;
11548;SDS011;61444;59.472;18.306;2023-07-20T03:11:52;5.00;;;1.60;;
11548;SDS011;61444;59.472;18.306;2023-07-20T03:14:06;5.73;;;1.57;;
11548;SDS011;61444;59.472;18.306;2023-07-20T03:16:33;4.13;;;1.60;;
11548;SDS011;61444;59.472;18.306;2023-07-20T03:18:56;3.13;;;1.47;;
11548;SDS011;61444;59.472;18.306;2023-07-20T03:21:12;4.27;;;1.57;;
11548;SDS011;61444;59.472;18.306;2023-07-20T03:23:25;6.07;;;1.50;;
11548;SDS011;61444;59.472;18.306;2023-07-20T03:25:49;2.90;;;1.73;;
11548;SDS011;61444;59.472;18.306;2023-07-20T03:28:06;2.67;;;1.57;;
11548;SDS011;61444;59.472;18.306;2023-07-20T03:30:16;3.43;;;1.60;;
11548;SDS011;61444;59.472;18.306;2023-07-20T03:32:30;3.93;;;1.63;;
11548;SDS011;61444;59.472;18.306;2023-07-20T03:34:45;4.63;;;1.43;;
11548;SDS011;61444;59.472;18.306;2023-07-20T03:37:09;6.17;;;1.80;;
11548;SDS011;61444;59.472;18.306;2023-07-20T03:39:24;7.13;;;1.60;;
11548;SDS011;61444;59.472;18.306;2023-07-20T03:41:44;3.83;;;1.43;;
11548;SDS011;61444;59.472;18.306;2023-07-20T03:44:01;3.87;;;1.73;;
11548;SDS011;61444;59.472;18.306;2023-07-20T03:46:19;5.77;;;1.73;;
11548;SDS011;61444;59.472;18.306;2023-07-20T03:48:33;9.10;;;1.80;;
11548;SDS011;61444;59.472;18.306;2023-07-20T03:50:57;9.77;;;2.07;;
11548;SDS011;61444;59.472;18.306;2023-07-20T03:53:15;4.67;;;1.60;;
11548;SDS011;61444;59.472;18.306;2023-07-20T03:55:46;4.93;;;1.77;;
11548;SDS011;61444;59.472;18.306;2023-07-20T03:58:11;5.93;;;1.60;;
11548;SDS011;61444;59.472;18.306;2023-07-20T04:00:25;4.50;;;1.70;;
11548;SDS011;61444;59.472;18.306;2023-07-20T04:02:41;6.63;;;1.60;;
11548;SDS011;61444;59.472;18.306;2023-07-20T04:05:05;4.10;;;1.83;;
11548;SDS011;61444;59.472;18.306;2023-07-20T04:07:28;4.40;;;1.57;;
11548;SDS011;61444;59.472;18.306;2023-07-20T04:09:42;3.53;;;2.07;;
11548;SDS011;61444;59.472;18.306;2023-07-20T04:12:01;4.67;;;1.70;;
11548;SDS011;61444;59.472;18.306;2023-07-20T04:14:22;8.70;;;2.10;;
11548;SDS011;61444;59.472;18.306;2023-07-20T04:16:39;4.63;;;1.83;;
11548;SDS011;61444;59.472;18.306;2023-07-20T04:18:58;4.80;;;1.70;;
11548;SDS011;61444;59.472;18.306;2023-07-20T04:21:15;5.60;;;1.67;;
11548;SDS011;61444;59.472;18.306;2023-07-20T04:23:34;6.93;;;2.30;;
11548;SDS011;61444;59.472;18.306;2023-07-20T04:25:54;2.30;;;1.50;;
11548;SDS011;61444;59.472;18.306;2023-07-20T04:28:15;5.23;;;1.63;;
11548;SDS011;61444;59.472;18.306;2023-07-20T04:30:42;7.40;;;2.00;;
11548;SDS011;61444;59.472;18.306;2023-07-20T04:32:53;4.20;;;1.60;;
11548;SDS011;61444;59.472;18.306;2023-07-20T04:35:05;5.53;;;2.00;;
11548;SDS011;61444;59.472;18.306;2023-07-20T04:37:17;5.63;;;1.93;;
11548;SDS011;61444;59.472;18.306;2023-07-20T04:39:47;5.33;;;2.07;;
11548;SDS011;61444;59.472;18.306;2023-07-20T04:42:00;3.63;;;1.80;;
11548;SDS011;61444;59.472;18.306;2023-07-20T04:44:20;4.77;;;1.90;;
11548;SDS011;61444;59.472;18.306;2023-07-20T04:46:48;4.33;;;1.80;;
11548;SDS011;61444;59.472;18.306;2023-07-20T04:49:13;5.00;;;1.90;;
11548;SDS011;61444;59.472;18.306;2023-07-20T04:51:32;4.23;;;1.90;;
11548;SDS011;61444;59.472;18.306;2023-07-20T04:53:45;4.00;;;1.80;;
11548;SDS011;61444;59.472;18.306;2023-07-20T04:56:10;7.13;;;1.97;;
11548;SDS011;61444;59.472;18.306;2023-07-20T04:58:25;6.00;;;2.37;;
11548;SDS011;61444;59.472;18.306;2023-07-20T05:00:47;4.73;;;1.97;;
11548;SDS011;61444;59.472;18.306;2023-07-20T05:03:09;6.13;;;2.00;;
11548;SDS011;61444;59.472;18.306;2023-07-20T05:05:30;5.23;;;1.87;;
11548;SDS011;61444;59.472;18.306;2023-07-20T05:08:00;6.10;;;2.20;;
11548;SDS011;61444;59.472;18.306;2023-07-20T05:10:30;7.47;;;1.97;;
11548;SDS011;61444;59.472;18.306;2023-07-20T05:12:51;6.77;;;1.83;;
11548;SDS011;61444;59.472;18.306;2023-07-20T05:15:06;4.47;;;1.97;;
11548;SDS011;61444;59.472;18.306;2023-07-20T05:17:26;6.33;;;1.80;;
11548;SDS011;61444;59.472;18.306;2023-07-20T05:19:49;6.43;;;1.90;;
11548;SDS011;61444;59.472;18.306;2023-07-20T05:22:00;6.50;;;2.50;;
11548;SDS011;61444;59.472;18.306;2023-07-20T05:24:21;4.80;;;1.83;;
11548;SDS011;61444;59.472;18.306;2023-07-20T05:26:51;4.87;;;1.80;;
11548;SDS011;61444;59.472;18.306;2023-07-20T05:29:04;3.00;;;1.70;;
11548;SDS011;61444;59.472;18.306;2023-07-20T05:31:27;4.33;;;2.07;;
11548;SDS011;61444;59.472;18.306;2023-07-20T05:33:46;4.80;;;1.97;;
11548;SDS011;61444;59.472;18.306;2023-07-20T05:36:09;3.77;;;1.77;;
11548;SDS011;61444;59.472;18.306;2023-07-20T05:38:37;5.90;;;1.70;;
11548;SDS011;61444;59.472;18.306;2023-07-20T05:40:59;3.03;;;1.93;;
11548;SDS011;61444;59.472;18.306;2023-07-20T05:43:12;4.37;;;2.17;;
11548;SDS011;61444;59.472;18.306;2023-07-20T05:45:32;4.50;;;1.80;;
11548;SDS011;61444;59.472;18.306;2023-07-20T05:47:48;6.23;;;2.20;;
11548;SDS011;61444;59.472;18.306;2023-07-20T05:50:04;8.00;;;2.27;;
11548;SDS011;61444;59.472;18.306;2023-07-20T05:52:34;6.07;;;2.00;;
11548;SDS011;61444;59.472;18.306;2023-07-20T05:54:51;7.77;;;2.30;;
11548;SDS011;61444;59.472;18.306;2023-07-20T05:57:11;5.33;;;2.23;;
11548;SDS011;61444;59.472;18.306;2023-07-20T05:59:27;5.60;;;2.27;;
11548;SDS011;61444;59.472;18.306;2023-07-20T06:01:43;4.67;;;2.60;;
11548;SDS011;61444;59.472;18.306;2023-07-20T06:03:57;8.43;;;2.50;;
11548;SDS011;61444;59.472;18.306;2023-07-20T06:06:12;8.07;;;2.13;;
11548;SDS011;61444;59.472;18.306;2023-07-20T06:08:29;5.50;;;2.10;;
11548;SDS011;61444;59.472;18.306;2023-07-20T06:10:49;8.27;;;2.23;;
11548;SDS011;61444;59.472;18.306;2023-07-20T06:13:04;6.20;;;2.07;;
11548;SDS011;61444;59.472;18.306;2023-07-20T06:15:25;5.80;;;2.10;;
11548;SDS011;61444;59.472;18.306;2023-07-20T06:17:38;5.03;;;1.60;;
11548;SDS011;61444;59.472;18.306;2023-07-20T06:19:50;8.30;;;2.27;;
11548;SDS011;61444;59.472;18.306;2023-07-20T06:22:07;4.47;;;1.80;;
11548;SDS011;61444;59.472;18.306;2023-07-20T06:24:19;5.53;;;2.10;;
11548;SDS011;61444;59.472;18.306;2023-07-20T06:26:35;7.13;;;2.10;;
11548;SDS011;61444;59.472;18.306;2023-07-20T06:28:59;4.33;;;1.80;;
11548;SDS011;61444;59.472;18.306;2023-07-20T06:31:18;4.50;;;2.80;;
11548;SDS011;61444;59.472;18.306;2023-07-20T06:33:41;3.77;;;2.17;;
11548;SDS011;61444;59.472;18.306;2023-07-20T06:36:04;5.97;;;2.00;;
11548;SDS011;61444;59.472;18.306;2023-07-20T06:38:19;4.07;;;2.20;;
11548;SDS011;61444;59.472;18.306;2023-07-20T06:40:43;4.67;;;2.20;;
11548;SDS011;61444;59.472;18.306;2023-07-20T06:43:10;4.50;;;2.17;;
11548;SDS011;61444;59.472;18.306;2023-07-20T06:45:25;7.00;;;2.00;;
11548;SDS011;61444;59.472;18.306;2023-07-20T06:47:47;6.67;;;2.23;;
11548;SDS011;61444;59.472;18.306;2023-07-20T06:50:00;6.70;;;1.70;;
11548;SDS011;61444;59.472;18.306;2023-07-20T06:52:15;5.20;;;1.97;;
11548;SDS011;61444;59.472;18.306;2023-07-20T06:54:37;4.47;;;1.93;;
11548;SDS011;61444;59.472;18.306;2023-07-20T06:56:57;3.17;;;1.97;;
11548;SDS011;61444;59.472;18.306;2023-07-20T06:59:24;5.37;;;1.90;;
11548;SDS011;61444;59.472;18.306;2023-07-20T07:01:47;6.43;;;2.27;;
11548;SDS011;61444;59.472;18.306;2023-07-20T07:03:59;7.13;;;2.20;;
11548;SDS011;61444;59.472;18.306;2023-07-20T07:06:15;5.60;;;2.20;;
11548;SDS011;61444;59.472;18.306;2023-07-20T07:08:29;3.83;;;2.00;;
11548;SDS011;61444;59.472;18.306;2023-07-20T07:10:41;4.83;;;2.10;;
11548;SDS011;61444;59.472;18.306;2023-07-20T07:13:03;5.50;;;2.40;;
11548;SDS011;61444;59.472;18.306;2023-07-20T07:15:25;5.63;;;2.37;;
11548;SDS011;61444;59.472;18.306;2023-07-20T07:17:42;4.23;;;1.97;;
11548;SDS011;61444;59.472;18.306;2023-07-20T07:19:54;4.03;;;1.93;;
11548;SDS011;61444;59.472;18.306;2023-07-20T07:22:25;6.33;;;2.20;;
11548;SDS011;61444;59.472;18.306;2023-07-20T07:24:39;4.67;;;2.17;;
11548;SDS011;61444;59.472;18.306;2023-07-20T07:26:50;8.20;;;2.20;;
11548;SDS011;61444;59.472;18.306;2023-07-20T07:29:10;6.63;;;2.50;;
11548;SDS011;61444;59.472;18.306;2023-07-20T07:31:28;6.40;;;2.27;;
11548;SDS011;61444;59.472;18.306;2023-07-20T07:33:44;4.60;;;2.37;;
11548;SDS011;61444;59.472;18.306;2023-07-20T07:35:56;5.37;;;2.50;;
11548;SDS011;61444;59.472;18.306;2023-07-20T07:38:13;4.07;;;2.00;;
11548;SDS011;61444;59.472;18.306;2023-07-20T07:40:47;5.50;;;2.50;;
11548;SDS011;61444;59.472;18.306;2023-07-20T07:43:07;5.90;;;2.60;;
11548;SDS011;61444;59.472;18.306;2023-07-20T07:45:35;4.30;;;2.40;;
11548;SDS011;61444;59.472;18.306;2023-07-20T07:47:56;3.60;;;2.53;;
11548;SDS011;61444;59.472;18.306;2023-07-20T07:50:07;5.00;;;2.50;;
11548;SDS011;61444;59.472;18.306;2023-07-20T07:52:22;5.03;;;3.00;;
11548;SDS011;61444;59.472;18.306;2023-07-20T07:54:37;4.70;;;2.97;;
11548;SDS011;61444;59.472;18.306;2023-07-20T07:56:54;8.33;;;3.30;;
11548;SDS011;61444;59.472;18.306;2023-07-20T07:59:07;3.87;;;3.07;;
11548;SDS011;61444;59.472;18.306;2023-07-20T08:01:28;6.30;;;2.87;;
11548;SDS011;61444;59.472;18.306;2023-07-20T08:03:40;4.53;;;3.13;;
11548;SDS011;61444;59.472;18.306;2023-07-20T08:06:03;5.40;;;2.87;;
11548;SDS011;61444;59.472;18.306;2023-07-20T08:08:28;3.60;;;2.97;;
11548;SDS011;61444;59.472;18.306;2023-07-20T08:10:42;6.27;;;3.57;;
11548;SDS011;61444;59.472;18.306;2023-07-20T08:13:03;5.73;;;3.43;;
11548;SDS011;61444;59.472;18.306;2023-07-20T08:15:24;4.40;;;3.33;;
11548;SDS011;61444;59.472;18.306;2023-07-20T08:17:46;3.73;;;3.30;;
11548;SDS011;61444;59.472;18.306;2023-07-20T08:20:19;4.03;;;2.90;;
11548;SDS011;61444;59.472;18.306;2023-07-20T08:22:44;4.47;;;2.80;;
11548;SDS011;61444;59.472;18.306;2023-07-20T08:25:01;4.63;;;2.80;;
11548;SDS011;61444;59.472;18.306;2023-07-20T08:27:16;4.43;;;3.10;;
11548;SDS011;61444;59.472;18.306;2023-07-20T08:29:34;3.77;;;3.10;;
11548;SDS011;61444;59.472;18.306;2023-07-20T08:31:56;2.83;;;2.60;;
11548;SDS011;61444;59.472;18.306;2023-07-20T08:34:23;6.57;;;3.00;;
11548;SDS011;61444;59.472;18.306;2023-07-20T08:36:43;3.67;;;3.20;;
11548;SDS011;61444;59.472;18.306;2023-07-20T08:39:03;3.77;;;2.73;;
11548;SDS011;61444;59.472;18.306;2023-07-20T08:41:18;6.67;;;2.80;;
11548;SDS011;61444;59.472;18.306;2023-07-20T08:43:42;4.87;;;3.00;;
11548;SDS011;61444;59.472;18.306;2023-07-20T08:45:59;3.20;;;2.60;;
11548;SDS011;61444;59.472;18.306;2023-07-20T08:48:10;5.00;;;2.90;;
11548;SDS011;61444;59.472;18.306;2023-07-20T08:50:22;3.93;;;3.00;;
11548;SDS011;61444;59.472;18.306;2023-07-20T08:52:41;5.63;;;3.37;;
11548;SDS011;61444;59.472;18.306;2023-07-20T08:54:53;6.00;;;3.27;;
11548;SDS011;61444;59.472;18.306;2023-07-20T08:57:05;3.17;;;2.97;;
11548;SDS011;61444;59.472;18.306;2023-07-20T08:59:19;3.83;;;2.83;;
11548;SDS011;61444;59.472;18.306;2023-07-20T09:01:58;4.77;;;2.90;;
11548;SDS011;61444;59.472;18.306;2023-07-20T09:04:12;3.50;;;2.43;;
11548;SDS011;61444;59.472;18.306;2023-07-20T09:06:26;2.80;;;2.50;;
11548;SDS011;61444;59.472;18.306;2023-07-20T09:08:43;3.90;;;2.87;;
11548;SDS011;61444;59.472;18.306;2023-07-20T09:11:01;2.47;;;2.10;;
11548;SDS011;61444;59.472;18.306;2023-07-20T09:13:20;2.90;;;2.00;;
11548;SDS011;61444;59.472;18.306;2023-07-20T09:15:53;5.00;;;2.57;;
11548;SDS011;61444;59.472;18.306;2023-07-20T09:18:07;4.60;;;2.80;;
11548;SDS011;61444;59.472;18.306;2023-07-20T09:20:27;3.33;;;2.27;;
11548;SDS011;61444;59.472;18.306;2023-07-20T09:22:48;2.83;;;2.60;;
11548;SDS011;61444;59.472;18.306;2023-07-20T09:25:03;3.80;;;2.73;;
11548;SDS011;61444;59.472;18.306;2023-07-20T09:27:29;5.33;;;2.57;;
11548;SDS011;61444;59.472;18.306;2023-07-20T09:29:51;4.13;;;2.83;;
11548;SDS011;61444;59.472;18.306;2023-07-20T09:32:17;3.87;;;2.60;;
11548;SDS011;61444;59.472;18.306;2023-07-20T09:34:50;5.07;;;2.57;;
11548;SDS011;61444;59.472;18.306;2023-07-20T09:37:01;4.53;;;2.50;;
11548;SDS011;61444;59.472;18.306;2023-07-20T09:39:28;2.73;;;2.27;;
11548;SDS011;61444;59.472;18.306;2023-07-20T09:42:05;3.63;;;2.87;;
11548;SDS011;61444;59.472;18.306;2023-07-20T09:44:28;4.77;;;3.17;;
11548;SDS011;61444;59.472;18.306;2023-07-20T09:46:45;6.03;;;3.13;;
11548;SDS011;61444;59.472;18.306;2023-07-20T09:49:08;5.27;;;3.10;;
11548;SDS011;61444;59.472;18.306;2023-07-20T09:51:29;4.10;;;3.30;;
11548;SDS011;61444;59.472;18.306;2023-07-20T09:53:42;3.63;;;3.33;;
11548;SDS011;61444;59.472;18.306;2023-07-20T09:55:58;3.57;;;3.33;;
11548;SDS011;61444;59.472;18.306;2023-07-20T09:58:21;5.10;;;3.77;;
11548;SDS011;61444;59.472;18.306;2023-07-20T10:00:38;3.73;;;3.40;;
11548;SDS011;61444;59.472;18.306;2023-07-20T10:03:00;4.37;;;3.33;;
11548;SDS011;61444;59.472;18.306;2023-07-20T10:05:25;4.60;;;3.47;;
11548;SDS011;61444;59.472;18.306;2023-07-20T10:07:52;4.50;;;3.57;;
11548;SDS011;61444;59.472;18.306;2023-07-20T10:10:27;5.70;;;2.90;;
11548;SDS011;61444;59.472;18.306;2023-07-20T10:12:46;6.60;;;3.50;;
11548;SDS011;61444;59.472;18.306;2023-07-20T10:15:09;3.73;;;3.20;;
11548;SDS011;61444;59.472;18.306;2023-07-20T10:17:37;3.60;;;3.10;;
11548;SDS011;61444;59.472;18.306;2023-07-20T10:20:06;3.67;;;3.37;;
11548;SDS011;61444;59.472;18.306;2023-07-20T10:22:25;4.10;;;3.47;;
11548;SDS011;61444;59.472;18.306;2023-07-20T10:24:58;3.60;;;2.83;;
11548;SDS011;61444;59.472;18.306;2023-07-20T10:27:25;3.67;;;2.43;;
11548;SDS011;61444;59.472;18.306;2023-07-20T10:29:42;2.60;;;2.40;;
11548;SDS011;61444;59.472;18.306;2023-07-20T10:31:57;2.33;;;2.00;;
11548;SDS011;61444;59.472;18.306;2023-07-20T10:34:27;2.50;;;2.13;;
11548;SDS011;61444;59.472;18.306;2023-07-20T10:36:45;3.47;;;1.90;;
11548;SDS011;61444;59.472;18.306;2023-07-20T10:39:07;3.57;;;2.30;;
11548;SDS011;61444;59.472;18.306;2023-07-20T10:41:53;3.43;;;2.33;;
11548;SDS011;61444;59.472;18.306;2023-07-20T10:44:12;2.30;;;2.07;;
11548;SDS011;61444;59.472;18.306;2023-07-20T10:46:35;2.43;;;2.00;;
11548;SDS011;61444;59.472;18.306;2023-07-20T10:49:06;3.80;;;2.40;;
11548;SDS011;61444;59.472;18.306;2023-07-20T10:51:23;3.13;;;2.80;;
11548;SDS011;61444;59.472;18.306;2023-07-20T10:53:44;2.83;;;2.53;;
11548;SDS011;61444;59.472;18.306;2023-07-20T10:56:08;2.73;;;2.53;;
11548;SDS011;61444;59.472;18.306;2023-07-20T10:58:36;3.27;;;2.37;;
11548;SDS011;61444;59.472;18.306;2023-07-20T11:00:59;2.13;;;2.03;;
11548;SDS011;61444;59.472;18.306;2023-07-20T11:03:29;2.63;;;2.13;;
11548;SDS011;61444;59.472;18.306;2023-07-20T11:05:59;2.23;;;2.13;;
11548;SDS011;61444;59.472;18.306;2023-07-20T11:08:40;2.20;;;2.10;;
11548;SDS011;61444;59.472;18.306;2023-07-20T11:13:59;2.43;;;2.23;;
11548;SDS011;61444;59.472;18.306;2023-07-20T11:16:14;1.83;;;1.73;;
11548;SDS011;61444;59.472;18.306;2023-07-20T11:18:41;1.87;;;1.70;;
11548;SDS011;61444;59.472;18.306;2023-07-20T11:20:55;2.27;;;1.57;;
11548;SDS011;61444;59.472;18.306;2023-07-20T11:23:15;1.73;;;1.63;;
11548;SDS011;61444;59.472;18.306;2023-07-20T11:25:36;4.63;;;1.70;;
11548;SDS011;61444;59.472;18.306;2023-07-20T11:27:51;1.70;;;1.60;;
11548;SDS011;61444;59.472;18.306;2023-07-20T11:30:20;2.03;;;1.80;;
11548;SDS011;61444;59.472;18.306;2023-07-20T11:32:45;1.70;;;1.60;;
11548;SDS011;61444;59.472;18.306;2023-07-20T11:34:59;2.43;;;1.80;;
11548;SDS011;61444;59.472;18.306;2023-07-20T11:37:17;2.00;;;1.80;;
11548;SDS011;61444;59.472;18.306;2023-07-20T11:39:34;2.00;;;1.80;;
11548;SDS011;61444;59.472;18.306;2023-07-20T11:41:44;2.10;;;1.87;;
11548;SDS011;61444;59.472;18.306;2023-07-20T11:44:10;1.57;;;1.47;;
11548;SDS011;61444;59.472;18.306;2023-07-20T11:46:35;2.10;;;1.90;;
11548;SDS011;61444;59.472;18.306;2023-07-20T11:48:51;1.93;;;1.70;;
11548;SDS011;61444;59.472;18.306;2023-07-20T11:51:16;2.53;;;1.60;;
11548;SDS011;61444;59.472;18.306;2023-07-20T11:53:28;1.60;;;1.50;;
11548;SDS011;61444;59.472;18.306;2023-07-20T11:55:42;1.83;;;1.53;;
11548;SDS011;61444;59.472;18.306;2023-07-20T11:58:03;2.20;;;1.20;;
11548;SDS011;61444;59.472;18.306;2023-07-20T12:00:17;2.33;;;1.53;;
11548;SDS011;61444;59.472;18.306;2023-07-20T12:02:39;2.13;;;1.47;;
11548;SDS011;61444;59.472;18.306;2023-07-20T12:05:01;1.70;;;1.60;;
11548;SDS011;61444;59.472;18.306;2023-07-20T12:07:18;2.50;;;1.50;;
11548;SDS011;61444;59.472;18.306;2023-07-20T12:09:30;2.67;;;1.83;;
11548;SDS011;61444;59.472;18.306;2023-07-20T12:11:58;1.87;;;1.67;;
11548;SDS011;61444;59.472;18.306;2023-07-20T12:14:13;1.77;;;1.40;;
11548;SDS011;61444;59.472;18.306;2023-07-20T12:16:39;2.67;;;1.40;;
11548;SDS011;61444;59.472;18.306;2023-07-20T12:19:08;2.33;;;1.43;;
11548;SDS011;61444;59.472;18.306;2023-07-20T12:21:28;2.60;;;1.67;;
11548;SDS011;61444;59.472;18.306;2023-07-20T12:23:41;2.23;;;1.70;;
11548;SDS011;61444;59.472;18.306;2023-07-20T12:25:56;1.70;;;1.40;;
11548;SDS011;61444;59.472;18.306;2023-07-20T12:28:12;2.53;;;1.40;;
11548;SDS011;61444;59.472;18.306;2023-07-20T12:30:32;2.83;;;1.40;;
11548;SDS011;61444;59.472;18.306;2023-07-20T12:32:51;2.93;;;1.57;;
11548;SDS011;61444;59.472;18.306;2023-07-20T12:35:11;1.50;;;1.40;;
11548;SDS011;61444;59.472;18.306;2023-07-20T12:37:27;1.50;;;1.40;;
11548;SDS011;61444;59.472;18.306;2023-07-20T12:39:41;1.60;;;1.50;;
11548;SDS011;61444;59.472;18.306;2023-07-20T12:42:00;1.70;;;1.50;;
11548;SDS011;61444;59.472;18.306;2023-07-20T12:44:14;1.70;;;1.60;;
11548;SDS011;61444;59.472;18.306;2023-07-20T12:46:28;2.37;;;1.47;;
11548;SDS011;61444;59.472;18.306;2023-07-20T12:48:47;3.47;;;1.63;;
11548;SDS011;61444;59.472;18.306;2023-07-20T12:51:16;2.10;;;1.77;;
11548;SDS011;61444;59.472;18.306;2023-07-20T12:53:35;3.00;;;1.80;;
11548;SDS011;61444;59.472;18.306;2023-07-20T12:55:48;1.80;;;1.70;;
11548;SDS011;61444;59.472;18.306;2023-07-20T12:58:02;3.23;;;1.97;;
11548;SDS011;61444;59.472;18.306;2023-07-20T13:00:16;3.50;;;1.70;;
11548;SDS011;61444;59.472;18.306;2023-07-20T13:02:26;4.93;;;2.23;;
11548;SDS011;61444;59.472;18.306;2023-07-20T13:04:47;2.70;;;2.00;;
11548;SDS011;61444;59.472;18.306;2023-07-20T13:07:03;2.47;;;2.27;;
11548;SDS011;61444;59.472;18.306;2023-07-20T13:09:41;2.90;;;1.70;;
11548;SDS011;61444;59.472;18.306;2023-07-20T13:11:55;3.17;;;1.60;;
11548;SDS011;61444;59.472;18.306;2023-07-20T13:14:10;1.43;;;1.33;;
11548;SDS011;61444;59.472;18.306;2023-07-20T13:16:29;2.83;;;1.90;;
11548;SDS011;61444;59.472;18.306;2023-07-20T13:18:51;2.23;;;1.67;;
11548;SDS011;61444;59.472;18.306;2023-07-20T13:21:12;2.03;;;1.60;;
11548;SDS011;61444;59.472;18.306;2023-07-20T13:23:44;4.00;;;1.90;;
11548;SDS011;61444;59.472;18.306;2023-07-20T13:25:56;2.27;;;1.50;;
11548;SDS011;61444;59.472;18.306;2023-07-20T13:28:20;2.57;;;1.70;;
11548;SDS011;61444;59.472;18.306;2023-07-20T13:30:43;2.27;;;1.90;;
11548;SDS011;61444;59.472;18.306;2023-07-20T13:32:57;1.80;;;1.70;;
11548;SDS011;61444;59.472;18.306;2023-07-20T13:35:23;1.87;;;1.77;;
11548;SDS011;61444;59.472;18.306;2023-07-20T13:37:43;3.30;;;1.77;;
11548;SDS011;61444;59.472;18.306;2023-07-20T13:40:04;3.95;;;1.80;;
11548;SDS011;61444;59.472;18.306;2023-07-20T13:42:28;4.50;;;2.83;;
11548;SDS011;61444;59.472;18.306;2023-07-20T13:44:47;2.43;;;1.80;;
11548;SDS011;61444;59.472;18.306;2023-07-20T13:47:04;2.97;;;1.70;;
11548;SDS011;61444;59.472;18.306;2023-07-20T13:49:25;1.60;;;1.50;;
11548;SDS011;61444;59.472;18.306;2023-07-20T13:51:43;4.83;;;2.00;;
11548;SDS011;61444;59.472;18.306;2023-07-20T13:54:11;3.53;;;2.47;;